Haldane, Illinois
Current Conditions -  °F | °C
As of 11:55 AM on Friday 24 Oct 2014 (Local Time) from KFEP Reporting Station
Haze Haze  
Wind Chill: 52°   Ceiling: 300
Heat Index: 52°   Visibility: 4mi
Dew Point: 51°   Wind: 6mph
Humidity: 95%   Direction: 190°S
Pressure: 30.07"   Gusts: NA
Location:  42.1164°N, 89.5849°W
Report Text: KFEP 241655Z AUTO 19005KT 4SM BR OVC003 11/10 A3007 RMK AO2 T01100103
Loading
Personal Weather Stations






























Interactive Weather Map
Tropical Storm Tracking
New forecast layout! Learn more

10-Day Weather Forecast

Advertisements
Track Severe Weather on mobile